sensor_id;sensor_type;location;lat;lon;timestamp;pressure;altitude;pressure_sealevel;temperature;humidity
11648;BME280;5880;52.342;9.662;2024-03-02T00:00:51;99764.69;;;13.41;48.13
11648;BME280;5880;52.342;9.662;2024-03-02T00:03:18;99759.75;;;13.38;48.24
11648;BME280;5880;52.342;9.662;2024-03-02T00:05:49;99766.88;;;13.39;48.24
11648;BME280;5880;52.342;9.662;2024-03-02T00:08:25;99764.69;;;13.41;48.31
11648;BME280;5880;52.342;9.662;2024-03-02T00:10:51;99765.25;;;13.38;48.39
11648;BME280;5880;52.342;9.662;2024-03-02T00:13:21;99768.53;;;13.40;48.38
11648;BME280;5880;52.342;9.662;2024-03-02T00:15:55;99770.19;;;13.41;48.44
11648;BME280;5880;52.342;9.662;2024-03-02T00:18:33;99770.19;;;13.41;48.37
11648;BME280;5880;52.342;9.662;2024-03-02T00:21:00;99770.47;;;13.39;48.33
11648;BME280;5880;52.342;9.662;2024-03-02T00:23:34;99766.88;;;13.39;48.30
11648;BME280;5880;52.342;9.662;2024-03-02T00:26:00;99767.72;;;13.39;48.46
11648;BME280;5880;52.342;9.662;2024-03-02T00:28:36;99775.41;;;13.42;48.28
11648;BME280;5880;52.342;9.662;2024-03-02T00:31:10;99773.75;;;13.41;48.33
11648;BME280;5880;52.342;9.662;2024-03-02T00:33:48;99778.41;;;13.41;48.36
11648;BME280;5880;52.342;9.662;2024-03-02T00:36:26;99780.91;;;13.42;48.27
11648;BME280;5880;52.342;9.662;2024-03-02T00:38:54;99777.03;;;13.38;48.31
11648;BME280;5880;52.342;9.662;2024-03-02T00:41:24;99779.22;;;13.41;48.36
11648;BME280;5880;52.342;9.662;2024-03-02T00:44:03;99771.00;;;13.41;48.49
11648;BME280;5880;52.342;9.662;2024-03-02T00:46:36;99772.38;;;13.39;48.23
11648;BME280;5880;52.342;9.662;2024-03-02T00:49:24;99782.53;;;13.38;48.23
11648;BME280;5880;52.342;9.662;2024-03-02T00:51:51;99780.34;;;13.35;48.68
11648;BME280;5880;52.342;9.662;2024-03-02T00:54:23;99777.28;;;13.37;48.33
11648;BME280;5880;52.342;9.662;2024-03-02T00:56:50;99774.84;;;13.35;48.39
11648;BME280;5880;52.342;9.662;2024-03-02T00:59:17;99777.59;;;13.35;48.29
11648;BME280;5880;52.342;9.662;2024-03-02T01:01:42;99771.53;;;13.33;48.45
11648;BME280;5880;52.342;9.662;2024-03-02T01:04:09;99774.28;;;13.33;48.45
11648;BME280;5880;52.342;9.662;2024-03-02T01:06:35;99773.47;;;13.33;48.51
11648;BME280;5880;52.342;9.662;2024-03-02T01:09:01;99778.09;;;13.32;48.65
11648;BME280;5880;52.342;9.662;2024-03-02T01:11:28;99772.34;;;13.28;48.65
11648;BME280;5880;52.342;9.662;2024-03-02T01:13:53;99778.09;;;13.32;48.61
11648;BME280;5880;52.342;9.662;2024-03-02T01:16:19;99768.78;;;13.28;48.51
11648;BME280;5880;52.342;9.662;2024-03-02T01:18:45;99782.78;;;13.32;49.04
11648;BME280;5880;52.342;9.662;2024-03-02T01:21:11;99781.16;;;13.30;48.71
11648;BME280;5880;52.342;9.662;2024-03-02T01:23:37;99782.22;;;13.29;48.75
11648;BME280;5880;52.342;9.662;2024-03-02T01:26:03;99781.41;;;13.29;48.65
11648;BME280;5880;52.342;9.662;2024-03-02T01:28:28;99781.41;;;13.29;nan
11648;BME280;5880;52.342;9.662;2024-03-02T01:30:54;99777.84;;;13.28;48.76
11648;BME280;5880;52.342;9.662;2024-03-02T01:33:20;99770.72;;;13.27;48.95
11648;BME280;5880;52.342;9.662;2024-03-02T01:35:46;99781.41;;;13.29;48.88
11648;BME280;5880;52.342;9.662;2024-03-02T01:38:13;99778.66;;;13.29;49.03
11648;BME280;5880;52.342;9.662;2024-03-02T01:40:38;99778.66;;;13.29;49.06
11648;BME280;5880;52.342;9.662;2024-03-02T01:43:05;99781.16;;;13.30;48.93
11648;BME280;5880;52.342;9.662;2024-03-02T01:45:31;99774.84;;;13.30;49.10
11648;BME280;5880;52.342;9.662;2024-03-02T01:47:57;99769.63;;;13.28;49.13
11648;BME280;5880;52.342;9.662;2024-03-02T01:50:31;99770.44;;;13.29;49.07
11648;BME280;5880;52.342;9.662;2024-03-02T01:52:58;99762.72;;;13.26;49.01
11648;BME280;5880;52.342;9.662;2024-03-02T01:55:25;99769.84;;;13.27;49.02
11648;BME280;5880;52.342;9.662;2024-03-02T01:57:52;99751.19;;;13.24;49.23
11648;BME280;5880;52.342;9.662;2024-03-02T02:00:19;99763.53;;;13.26;49.08
11648;BME280;5880;52.342;9.662;2024-03-02T02:02:48;99751.19;;;13.24;49.08
11648;BME280;5880;52.342;9.662;2024-03-02T02:05:14;99751.75;;;13.26;49.02
11648;BME280;5880;52.342;9.662;2024-03-02T02:07:41;99747.88;;;13.22;49.13
11648;BME280;5880;52.342;9.662;2024-03-02T02:10:08;99752.00;;;13.24;49.22
11648;BME280;5880;52.342;9.662;2024-03-02T02:12:33;99749.25;;;13.24;49.16
11648;BME280;5880;52.342;9.662;2024-03-02T02:15:00;99754.75;;;13.24;49.25
11648;BME280;5880;52.342;9.662;2024-03-02T02:17:25;99742.66;;;13.20;49.12
11648;BME280;5880;52.342;9.662;2024-03-02T02:19:51;99747.88;;;13.22;49.21
11648;BME280;5880;52.342;9.662;2024-03-02T02:22:17;99744.88;;;13.23;49.25
11648;BME280;5880;52.342;9.662;2024-03-02T02:24:42;99742.13;;;13.18;48.99
11648;BME280;5880;52.342;9.662;2024-03-02T02:27:09;99749.81;;;13.21;49.04
11648;BME280;5880;52.342;9.662;2024-03-02T02:29:36;99747.31;;;13.20;49.19
11648;BME280;5880;52.342;9.662;2024-03-02T02:32:01;99741.84;;;13.20;49.10
11648;BME280;5880;52.342;9.662;2024-03-02T02:34:28;99736.34;;;13.15;49.40
11648;BME280;5880;52.342;9.662;2024-03-02T02:36:54;99738.53;;;13.18;49.30
11648;BME280;5880;52.342;9.662;2024-03-02T02:39:21;99741.28;;;13.18;49.33
11648;BME280;5880;52.342;9.662;2024-03-02T02:41:50;99734.41;;;13.15;49.18
11648;BME280;5880;52.342;9.662;2024-03-02T02:44:16;99745.13;;;13.17;49.27
11648;BME280;5880;52.342;9.662;2024-03-02T02:46:41;99737.97;;;13.16;49.30
11648;BME280;5880;52.342;9.662;2024-03-02T02:49:07;99738.28;;;13.14;49.37
11648;BME280;5880;52.342;9.662;2024-03-02T02:51:33;99735.53;;;13.14;49.35
11648;BME280;5880;52.342;9.662;2024-03-02T02:53:59;99729.22;;;13.14;49.50
11648;BME280;5880;52.342;9.662;2024-03-02T02:56:25;99733.84;;;13.13;49.22
11648;BME280;5880;52.342;9.662;2024-03-02T02:58:50;99730.59;;;13.11;49.33
11648;BME280;5880;52.342;9.662;2024-03-02T03:01:16;99731.66;;;13.10;49.46
11648;BME280;5880;52.342;9.662;2024-03-02T03:03:46;99728.38;;;13.08;49.40
11648;BME280;5880;52.342;9.662;2024-03-02T03:06:12;99733.28;;;13.06;49.72
11648;BME280;5880;52.342;9.662;2024-03-02T03:08:38;99728.09;;;13.04;49.44
11648;BME280;5880;52.342;9.662;2024-03-02T03:11:04;99728.91;;;13.05;49.25
11648;BME280;5880;52.342;9.662;2024-03-02T03:13:34;99723.69;;;13.03;49.19
11648;BME280;5880;52.342;9.662;2024-03-02T03:16:00;99719.31;;;13.02;49.39
11648;BME280;5880;52.342;9.662;2024-03-02T03:18:25;99719.84;;;12.99;49.32
11648;BME280;5880;52.342;9.662;2024-03-02T03:20:51;99724.50;;;12.99;49.29
11648;BME280;5880;52.342;9.662;2024-03-02T03:23:17;99724.50;;;12.94;49.08
11648;BME280;5880;52.342;9.662;2024-03-02T03:25:43;99717.38;;;12.93;49.29
11648;BME280;5880;52.342;9.662;2024-03-02T03:28:09;99720.63;;;12.89;49.36
11648;BME280;5880;52.342;9.662;2024-03-02T03:30:39;99719.00;;;12.88;49.22
11648;BME280;5880;52.342;9.662;2024-03-02T03:33:05;99708.53;;;12.80;49.15
11648;BME280;5880;52.342;9.662;2024-03-02T03:35:32;99712.94;;;12.81;49.01
11648;BME280;5880;52.342;9.662;2024-03-02T03:37:58;99722.25;;;12.80;49.30
11648;BME280;5880;52.342;9.662;2024-03-02T03:40:23;99721.97;;;12.77;48.99
11648;BME280;5880;52.342;9.662;2024-03-02T03:42:49;99723.34;;;12.74;48.91
11648;BME280;5880;52.342;9.662;2024-03-02T03:45:16;99718.13;;;12.73;49.23
11648;BME280;5880;52.342;9.662;2024-03-02T03:47:42;99712.34;;;12.69;49.36
11648;BME280;5880;52.342;9.662;2024-03-02T03:50:08;99712.88;;;12.66;49.10
11648;BME280;5880;52.342;9.662;2024-03-02T03:52:33;99722.22;;;12.65;49.25
11648;BME280;5880;52.342;9.662;2024-03-02T03:55:00;99717.53;;;12.60;49.19
11648;BME280;5880;52.342;9.662;2024-03-02T03:57:26;99714.22;;;12.58;49.17
11648;BME280;5880;52.342;9.662;2024-03-02T03:59:53;99712.84;;;12.56;49.28
11648;BME280;5880;52.342;9.662;2024-03-02T04:02:19;99717.75;;;12.54;49.42
11648;BME280;5880;52.342;9.662;2024-03-02T04:04:44;99713.91;;;12.50;49.54
11648;BME280;5880;52.342;9.662;2024-03-02T04:07:10;99703.22;;;12.48;49.68
11648;BME280;5880;52.342;9.662;2024-03-02T04:09:36;99708.97;;;12.46;49.56
11648;BME280;5880;52.342;9.662;2024-03-02T04:12:02;99715.56;;;12.45;49.49
11648;BME280;5880;52.342;9.662;2024-03-02T04:14:27;99706.47;;;12.40;49.85
11648;BME280;5880;52.342;9.662;2024-03-02T04:16:53;99713.06;;;12.44;49.45
11648;BME280;5880;52.342;9.662;2024-03-02T04:19:18;99709.75;;;12.42;49.62
11648;BME280;5880;52.342;9.662;2024-03-02T04:21:44;99708.38;;;12.39;49.51
11648;BME280;5880;52.342;9.662;2024-03-02T04:24:10;99712.19;;;12.38;49.55
11648;BME280;5880;52.342;9.662;2024-03-02T04:26:35;99705.09;;;12.37;49.58
11648;BME280;5880;52.342;9.662;2024-03-02T04:29:01;99721.53;;;12.37;49.46
11648;BME280;5880;52.342;9.662;2024-03-02T04:31:27;99706.69;;;12.33;49.54
11648;BME280;5880;52.342;9.662;2024-03-02T04:33:53;99714.66;;;12.35;49.54
11648;BME280;5880;52.342;9.662;2024-03-02T04:36:19;99720.41;;;12.33;49.87
11648;BME280;5880;52.342;9.662;2024-03-02T04:38:46;99724.25;;;12.32;49.92
11648;BME280;5880;52.342;9.662;2024-03-02T04:41:12;99721.75;;;12.31;49.63
11648;BME280;5880;52.342;9.662;2024-03-02T04:43:37;99715.47;;;12.30;49.83
11648;BME280;5880;52.342;9.662;2024-03-02T04:46:03;99721.19;;;12.29;49.62
11648;BME280;5880;52.342;9.662;2024-03-02T04:48:29;99714.31;;;12.26;50.00
11648;BME280;5880;52.342;9.662;2024-03-02T04:50:54;99721.16;;;12.23;49.71
11648;BME280;5880;52.342;9.662;2024-03-02T04:53:20;99718.44;;;12.23;49.78
11648;BME280;5880;52.342;9.662;2024-03-02T04:55:46;99717.59;;;12.23;49.62
11648;BME280;5880;52.342;9.662;2024-03-02T04:58:31;99726.38;;;12.20;50.02
11648;BME280;5880;52.342;9.662;2024-03-02T05:00:57;99723.06;;;12.18;49.63
11648;BME280;5880;52.342;9.662;2024-03-02T05:03:23;99714.28;;;12.16;49.93
11648;BME280;5880;52.342;9.662;2024-03-02T05:05:49;99723.03;;;12.13;50.01
11648;BME280;5880;52.342;9.662;2024-03-02T05:08:15;99721.38;;;12.12;50.01
11648;BME280;5880;52.342;9.662;2024-03-02T05:10:42;99715.06;;;12.11;49.83
11648;BME280;5880;52.342;9.662;2024-03-02T05:13:08;99709.84;;;12.10;49.71
11648;BME280;5880;52.342;9.662;2024-03-02T05:15:33;99696.44;;;12.08;49.72
11648;BME280;5880;52.342;9.662;2024-03-02T05:17:59;99695.56;;;12.02;49.71
11648;BME280;5880;52.342;9.662;2024-03-02T05:20:25;99704.59;;;12.03;49.97
11648;BME280;5880;52.342;9.662;2024-03-02T05:22:51;99714.75;;;12.02;50.15
11648;BME280;5880;52.342;9.662;2024-03-02T05:25:16;99715.84;;;12.01;49.92
11648;BME280;5880;52.342;9.662;2024-03-02T05:27:42;99716.66;;;12.02;50.09
11648;BME280;5880;52.342;9.662;2024-03-02T05:30:08;99707.88;;;12.00;50.02
11648;BME280;5880;52.342;9.662;2024-03-02T05:32:34;99717.72;;;12.01;49.98
11648;BME280;5880;52.342;9.662;2024-03-02T05:35:00;99714.47;;;11.99;49.90
11648;BME280;5880;52.342;9.662;2024-03-02T05:37:25;99721.00;;;11.98;50.04
11648;BME280;5880;52.342;9.662;2024-03-02T05:39:51;99725.34;;;11.94;49.91
11648;BME280;5880;52.342;9.662;2024-03-02T05:42:17;99723.72;;;11.93;49.75
11648;BME280;5880;52.342;9.662;2024-03-02T05:44:43;99726.72;;;11.91;49.84
11648;BME280;5880;52.342;9.662;2024-03-02T05:47:08;99734.09;;;11.91;50.20
11648;BME280;5880;52.342;9.662;2024-03-02T05:49:35;99727.81;;;11.90;49.83
11648;BME280;5880;52.342;9.662;2024-03-02T05:52:00;99728.88;;;11.89;50.07
11648;BME280;5880;52.342;9.662;2024-03-02T05:54:26;99726.34;;;11.82;49.98
11648;BME280;5880;52.342;9.662;2024-03-02T05:56:52;99735.38;;;11.83;50.38
11648;BME280;5880;52.342;9.662;2024-03-02T05:59:17;99738.94;;;11.83;50.46
11648;BME280;5880;52.342;9.662;2024-03-02T06:01:47;99744.41;;;11.83;50.60
11648;BME280;5880;52.342;9.662;2024-03-02T06:04:14;99736.47;;;11.82;50.61
11648;BME280;5880;52.342;9.662;2024-03-02T06:06:43;99729.91;;;11.83;50.70
11648;BME280;5880;52.342;9.662;2024-03-02T06:09:09;99730.97;;;11.82;50.63
11648;BME280;5880;52.342;9.662;2024-03-02T06:11:39;99740.88;;;11.83;50.38
11648;BME280;5880;52.342;9.662;2024-03-02T06:14:08;99743.03;;;11.81;50.54
11648;BME280;5880;52.342;9.662;2024-03-02T06:16:34;99747.69;;;11.80;50.49
11648;BME280;5880;52.342;9.662;2024-03-02T06:19:01;99752.88;;;11.82;50.84
11648;BME280;5880;52.342;9.662;2024-03-02T06:21:27;99755.38;;;11.83;50.74
11648;BME280;5880;52.342;9.662;2024-03-02T06:23:53;99760.84;;;11.83;50.67
11648;BME280;5880;52.342;9.662;2024-03-02T06:26:19;99755.94;;;11.86;50.75
11648;BME280;5880;52.342;9.662;2024-03-02T06:28:46;99761.19;;;11.87;51.05
11648;BME280;5880;52.342;9.662;2024-03-02T06:31:12;99765.78;;;11.87;50.84
11648;BME280;5880;52.342;9.662;2024-03-02T06:33:38;99767.78;;;11.91;51.24
11648;BME280;5880;52.342;9.662;2024-03-02T06:36:04;99771.91;;;11.94;51.27
11648;BME280;5880;52.342;9.662;2024-03-02T06:38:30;99774.38;;;11.95;51.07
11648;BME280;5880;52.342;9.662;2024-03-02T06:40:58;99767.00;;;11.96;51.64
11648;BME280;5880;52.342;9.662;2024-03-02T06:43:23;99769.50;;;12.02;51.39
11648;BME280;5880;52.342;9.662;2024-03-02T06:45:50;99772.81;;;12.04;51.50
11648;BME280;5880;52.342;9.662;2024-03-02T06:48:17;99777.50;;;12.09;51.57
11648;BME280;5880;52.342;9.662;2024-03-02T06:50:46;99775.34;;;12.11;51.69
11648;BME280;5880;52.342;9.662;2024-03-02T06:53:13;99778.09;;;12.16;51.46
11648;BME280;5880;52.342;9.662;2024-03-02T06:55:39;99771.59;;;12.22;51.68
11648;BME280;5880;52.342;9.662;2024-03-02T06:58:04;99778.47;;;12.30;51.70
11648;BME280;5880;52.342;9.662;2024-03-02T07:00:30;99771.09;;;12.36;51.79
11648;BME280;5880;52.342;9.662;2024-03-02T07:02:56;99775.28;;;12.43;52.02
11648;BME280;5880;52.342;9.662;2024-03-02T07:05:22;99782.16;;;12.51;51.92
11648;BME280;5880;52.342;9.662;2024-03-02T07:07:47;99790.97;;;12.58;51.96
11648;BME280;5880;52.342;9.662;2024-03-02T07:10:13;99780.81;;;12.59;51.77
11648;BME280;5880;52.342;9.662;2024-03-02T07:12:39;99788.28;;;12.68;51.90
11648;BME280;5880;52.342;9.662;2024-03-02T07:15:05;99781.44;;;12.71;51.81
11648;BME280;5880;52.342;9.662;2024-03-02T07:17:31;99785.59;;;12.79;51.65
11648;BME280;5880;52.342;9.662;2024-03-02T07:19:57;99791.09;;;12.84;51.91
11648;BME280;5880;52.342;9.662;2024-03-02T07:22:23;99792.50;;;12.92;52.08
11648;BME280;5880;52.342;9.662;2024-03-02T07:24:49;99787.59;;;13.04;52.39
11648;BME280;5880;52.342;9.662;2024-03-02T07:27:16;99799.19;;;13.16;52.60
11648;BME280;5880;52.342;9.662;2024-03-02T07:29:43;99788.00;;;13.28;52.59
11648;BME280;5880;52.342;9.662;2024-03-02T07:32:10;99797.91;;;13.39;53.09
11648;BME280;5880;52.342;9.662;2024-03-02T07:34:36;99808.34;;;13.58;53.05
11648;BME280;5880;52.342;9.662;2024-03-02T07:37:03;99804.28;;;13.76;53.37
11648;BME280;5880;52.342;9.662;2024-03-02T07:39:29;99809.22;;;13.99;53.58
11648;BME280;5880;52.342;9.662;2024-03-02T07:41:56;99811.69;;;14.26;53.96
11648;BME280;5880;52.342;9.662;2024-03-02T07:44:21;99817.16;;;14.52;53.75
11648;BME280;5880;52.342;9.662;2024-03-02T07:46:48;99812.72;;;14.76;53.39
11648;BME280;5880;52.342;9.662;2024-03-02T07:49:18;99814.84;;;14.95;52.79
11648;BME280;5880;52.342;9.662;2024-03-02T07:51:44;99818.09;;;15.07;52.09
11648;BME280;5880;52.342;9.662;2024-03-02T07:54:10;99815.63;;;15.11;51.58
11648;BME280;5880;52.342;9.662;2024-03-02T07:56:36;99808.47;;;15.10;51.09
11648;BME280;5880;52.342;9.662;2024-03-02T07:59:02;99810.97;;;15.06;51.00
11648;BME280;5880;52.342;9.662;2024-03-02T08:01:31;99812.91;;;15.01;50.68
11648;BME280;5880;52.342;9.662;2024-03-02T08:03:59;99807.16;;;14.97;50.78
11648;BME280;5880;52.342;9.662;2024-03-02T08:06:26;99819.00;;;14.92;50.60
11648;BME280;5880;52.342;9.662;2024-03-02T08:08:56;99816.53;;;14.86;50.55
11648;BME280;5880;52.342;9.662;2024-03-02T08:11:22;99821.25;;;14.80;50.59
11648;BME280;5880;52.342;9.662;2024-03-02T08:13:49;99823.72;;;14.76;50.58
11648;BME280;5880;52.342;9.662;2024-03-02T08:16:16;99823.47;;;14.73;50.55
11648;BME280;5880;52.342;9.662;2024-03-02T08:18:46;99819.34;;;14.70;50.69
11648;BME280;5880;52.342;9.662;2024-03-02T08:21:13;99832.25;;;14.70;50.65
11648;BME280;5880;52.342;9.662;2024-03-02T08:23:38;99822.63;;;14.67;50.69
11648;BME280;5880;52.342;9.662;2024-03-02T08:26:06;99821.56;;;14.68;50.76
11648;BME280;5880;52.342;9.662;2024-03-02T08:28:32;99821.56;;;14.68;50.82
11648;BME280;5880;52.342;9.662;2024-03-02T08:30:58;99819.63;;;14.69;50.93
11648;BME280;5880;52.342;9.662;2024-03-02T08:33:24;99824.31;;;14.68;50.74
11648;BME280;5880;52.342;9.662;2024-03-02T08:35:50;99830.34;;;14.70;50.85
11648;BME280;5880;52.342;9.662;2024-03-02T08:38:15;99830.06;;;14.72;50.90
11648;BME280;5880;52.342;9.662;2024-03-02T08:40:41;99844.09;;;14.75;50.80
11648;BME280;5880;52.342;9.662;2024-03-02T08:43:07;99829.53;;;14.75;50.83
11648;BME280;5880;52.342;9.662;2024-03-02T08:45:33;99839.13;;;14.77;51.06
11648;BME280;5880;52.342;9.662;2024-03-02T08:48:00;99842.13;;;14.81;50.92
11648;BME280;5880;52.342;9.662;2024-03-02T08:50:26;99830.28;;;14.86;50.96
11648;BME280;5880;52.342;9.662;2024-03-02T08:52:51;99830.84;;;14.88;50.94
11648;BME280;5880;52.342;9.662;2024-03-02T08:55:17;99833.00;;;14.96;50.93
11648;BME280;5880;52.342;9.662;2024-03-02T08:57:43;99831.06;;;15.02;51.03
11648;BME280;5880;52.342;9.662;2024-03-02T09:00:09;99842.31;;;15.05;50.86
11648;BME280;5880;52.342;9.662;2024-03-02T09:02:35;99845.34;;;15.09;50.90
11648;BME280;5880;52.342;9.662;2024-03-02T09:05:01;99842.56;;;15.14;51.00
11648;BME280;5880;52.342;9.662;2024-03-02T09:07:27;99844.47;;;15.18;50.68
11648;BME280;5880;52.342;9.662;2024-03-02T09:09:52;99838.97;;;15.18;50.64
11648;BME280;5880;52.342;9.662;2024-03-02T09:12:19;99846.38;;;15.23;50.75
11648;BME280;5880;52.342;9.662;2024-03-02T09:14:45;99839.22;;;15.27;50.82
11648;BME280;5880;52.342;9.662;2024-03-02T09:17:12;99843.59;;;15.28;50.61
11648;BME280;5880;52.342;9.662;2024-03-02T09:19:39;99845.78;;;15.36;50.76
11648;BME280;5880;52.342;9.662;2024-03-02T09:22:04;99852.38;;;15.40;50.60
11648;BME280;5880;52.342;9.662;2024-03-02T09:24:33;99851.81;;;15.44;50.46
11648;BME280;5880;52.342;9.662;2024-03-02T09:27:00;99844.38;;;15.44;50.47
11648;BME280;5880;52.342;9.662;2024-03-02T09:29:25;99848.75;;;15.45;50.34
11648;BME280;5880;52.342;9.662;2024-03-02T09:31:51;99849.84;;;15.49;50.20
11648;BME280;5880;52.342;9.662;2024-03-02T09:34:17;99843.78;;;15.52;50.22
11648;BME280;5880;52.342;9.662;2024-03-02T09:36:43;99839.91;;;15.53;50.20
11648;BME280;5880;52.342;9.662;2024-03-02T09:39:09;99844.28;;;15.54;50.04
11648;BME280;5880;52.342;9.662;2024-03-02T09:41:37;99843.22;;;15.55;50.03
11648;BME280;5880;52.342;9.662;2024-03-02T09:44:04;99836.88;;;15.55;50.08
11648;BME280;5880;52.342;9.662;2024-03-02T09:46:30;99840.19;;;15.52;50.01
11648;BME280;5880;52.342;9.662;2024-03-02T09:48:56;99844.59;;;15.53;49.83
11648;BME280;5880;52.342;9.662;2024-03-02T09:51:23;99853.69;;;15.53;49.86
11648;BME280;5880;52.342;9.662;2024-03-02T09:53:49;99854.81;;;15.52;49.97
11648;BME280;5880;52.342;9.662;2024-03-02T09:56:16;99859.47;;;15.52;50.02
11648;BME280;5880;52.342;9.662;2024-03-02T09:58:41;99852.88;;;15.53;50.21
11648;BME280;5880;52.342;9.662;2024-03-02T10:01:08;99853.41;;;15.55;50.16
11648;BME280;5880;52.342;9.662;2024-03-02T10:03:37;99848.13;;;15.58;50.38
11648;BME280;5880;52.342;9.662;2024-03-02T10:06:23;99855.53;;;15.63;50.06
11648;BME280;5880;52.342;9.662;2024-03-02T10:08:53;99855.22;;;15.70;50.42
11648;BME280;5880;52.342;9.662;2024-03-02T10:11:34;99858.78;;;15.80;50.59
11648;BME280;5880;52.342;9.662;2024-03-02T10:14:12;99863.63;;;15.94;50.62
11648;BME280;5880;52.342;9.662;2024-03-02T10:16:41;99864.09;;;16.11;50.81
11648;BME280;5880;52.342;9.662;2024-03-02T10:19:37;99866.91;;;16.35;50.52
11648;BME280;5880;52.342;9.662;2024-03-02T10:22:06;99868.38;;;16.57;50.76
11648;BME280;5880;52.342;9.662;2024-03-02T10:24:38;99870.63;;;16.84;50.43
11648;BME280;5880;52.342;9.662;2024-03-02T10:27:22;99876.69;;;17.10;50.11
11648;BME280;5880;52.342;9.662;2024-03-02T10:29:49;99872.53;;;17.32;49.75
11648;BME280;5880;52.342;9.662;2024-03-02T10:32:16;99863.75;;;17.48;49.24
11648;BME280;5880;52.342;9.662;2024-03-02T10:34:45;99864.09;;;17.66;49.10
11648;BME280;5880;52.342;9.662;2024-03-02T10:37:11;99866.69;;;17.76;48.82
11648;BME280;5880;52.342;9.662;2024-03-02T10:39:38;99864.97;;;17.80;48.39
11648;BME280;5880;52.342;9.662;2024-03-02T10:42:08;99865.59;;;17.77;48.25
11648;BME280;5880;52.342;9.662;2024-03-02T10:44:34;99866.78;;;17.71;47.54
11648;BME280;5880;52.342;9.662;2024-03-02T10:47:05;99855.88;;;17.61;47.66
11648;BME280;5880;52.342;9.662;2024-03-02T10:49:32;99865.72;;;17.48;47.60
11648;BME280;5880;52.342;9.662;2024-03-02T10:52:01;99866.13;;;17.36;47.57
11648;BME280;5880;52.342;9.662;2024-03-02T10:54:27;99860.22;;;17.24;47.80
11648;BME280;5880;52.342;9.662;2024-03-02T10:56:58;99857.81;;;17.17;47.90
11648;BME280;5880;52.342;9.662;2024-03-02T10:59:34;99861.47;;;17.13;48.06
11648;BME280;5880;52.342;9.662;2024-03-02T11:02:02;99865.38;;;17.06;48.06
11648;BME280;5880;52.342;9.662;2024-03-02T11:04:30;99859.66;;;17.03;48.10
11648;BME280;5880;52.342;9.662;2024-03-02T11:07:04;99859.72;;;16.98;47.90
11648;BME280;5880;52.342;9.662;2024-03-02T11:09:34;99864.75;;;16.91;47.95
11648;BME280;5880;52.342;9.662;2024-03-02T11:12:12;99855.41;;;16.86;48.04
11648;BME280;5880;52.342;9.662;2024-03-02T11:14:41;99862.34;;;16.84;48.12
11648;BME280;5880;52.342;9.662;2024-03-02T11:17:13;99853.25;;;16.83;48.18
11648;BME280;5880;52.342;9.662;2024-03-02T11:19:41;99853.00;;;16.80;48.07
11648;BME280;5880;52.342;9.662;2024-03-02T11:22:09;99855.16;;;16.83;48.32
11648;BME280;5880;52.342;9.662;2024-03-02T11:24:36;99851.59;;;16.82;48.31
11648;BME280;5880;52.342;9.662;2024-03-02T11:27:04;99856.81;;;16.84;48.04
11648;BME280;5880;52.342;9.662;2024-03-02T11:32:13;99859.03;;;16.82;47.77
11648;BME280;5880;52.342;9.662;2024-03-02T11:34:42;99853.00;;;16.80;48.18
11648;BME280;5880;52.342;9.662;2024-03-02T11:37:13;99851.59;;;16.82;47.97
11648;BME280;5880;52.342;9.662;2024-03-02T11:39:39;99856.28;;;16.82;47.93
11648;BME280;5880;52.342;9.662;2024-03-02T11:42:09;99854.06;;;16.84;48.06
11648;BME280;5880;52.342;9.662;2024-03-02T11:44:37;99861.22;;;16.85;47.74
11648;BME280;5880;52.342;9.662;2024-03-02T11:47:10;99851.84;;;16.86;47.75
11648;BME280;5880;52.342;9.662;2024-03-02T11:49:43;99849.94;;;16.81;47.58
11648;BME280;5880;52.342;9.662;2024-03-02T11:52:13;99855.16;;;16.83;47.85
11648;BME280;5880;52.342;9.662;2024-03-02T11:54:41;99853.47;;;16.87;47.97
11648;BME280;5880;52.342;9.662;2024-03-02T11:57:13;99858.94;;;16.92;48.01
11648;BME280;5880;52.342;9.662;2024-03-02T11:59:40;99845.66;;;16.94;47.88
11648;BME280;5880;52.342;9.662;2024-03-02T12:02:06;99861.34;;;16.99;47.99
11648;BME280;5880;52.342;9.662;2024-03-02T12:04:32;99855.22;;;17.02;47.94
11648;BME280;5880;52.342;9.662;2024-03-02T12:07:00;99853.53;;;17.06;48.11
11648;BME280;5880;52.342;9.662;2024-03-02T12:09:27;99846.91;;;17.07;47.92
11648;BME280;5880;52.342;9.662;2024-03-02T12:12:08;99851.00;;;17.09;47.68
11648;BME280;5880;52.342;9.662;2024-03-02T12:14:36;99841.38;;;17.07;47.69
11648;BME280;5880;52.342;9.662;2024-03-02T12:17:03;99836.69;;;17.07;47.78
11648;BME280;5880;52.342;9.662;2024-03-02T12:19:29;99837.22;;;17.09;47.69
11648;BME280;5880;52.342;9.662;2024-03-02T12:21:57;99832.50;;;17.10;47.64
11648;BME280;5880;52.342;9.662;2024-03-02T12:24:24;99832.44;;;17.15;47.54
11648;BME280;5880;52.342;9.662;2024-03-02T12:26:51;99831.03;;;17.18;47.65
11648;BME280;5880;52.342;9.662;2024-03-02T12:29:21;99832.06;;;17.22;47.41
11648;BME280;5880;52.342;9.662;2024-03-02T12:31:52;99817.38;;;17.26;47.75
11648;BME280;5880;52.342;9.662;2024-03-02T12:34:18;99825.59;;;17.32;47.86
11648;BME280;5880;52.342;9.662;2024-03-02T12:36:46;99817.75;;;17.39;47.77
11648;BME280;5880;52.342;9.662;2024-03-02T12:39:18;99814.34;;;17.47;47.44
11648;BME280;5880;52.342;9.662;2024-03-02T12:41:46;99822.28;;;17.54;47.59
11648;BME280;5880;52.342;9.662;2024-03-02T12:44:11;99803.16;;;17.57;47.50
11648;BME280;5880;52.342;9.662;2024-03-02T12:46:37;99816.06;;;17.62;47.36
11648;BME280;5880;52.342;9.662;2024-03-02T12:49:11;99812.94;;;17.68;47.16
11648;BME280;5880;52.342;9.662;2024-03-02T12:51:39;99816.75;;;17.72;47.33
11648;BME280;5880;52.342;9.662;2024-03-02T12:54:10;99816.13;;;17.76;47.04
11648;BME280;5880;52.342;9.662;2024-03-02T12:56:37;99819.94;;;17.80;47.05
11648;BME280;5880;52.342;9.662;2024-03-02T12:59:04;99824.91;;;17.83;46.88
11648;BME280;5880;52.342;9.662;2024-03-02T13:01:30;99809.94;;;17.84;46.80
11648;BME280;5880;52.342;9.662;2024-03-02T13:03:58;99809.13;;;17.83;46.51
11648;BME280;5880;52.342;9.662;2024-03-02T13:06:25;99816.53;;;17.88;46.58
11648;BME280;5880;52.342;9.662;2024-03-02T13:08:54;99805.78;;;17.86;46.74
11648;BME280;5880;52.342;9.662;2024-03-02T13:11:23;99808.47;;;17.91;46.41
11648;BME280;5880;52.342;9.662;2024-03-02T13:13:50;99814.00;;;17.91;46.29